Time;durP1;ratioP1;P1;durP2;ratioP2;P2;SDS_P1;SDS_P2;PMS_P1;PMS_P2;Temp;Humidity;BMP_temperature;BMP_pressure;BME280_temperature;BME280_humidity;BME280_pressure;Samples;Min_cycle;Max_cycle;Signal;HPM_P1;HPM_P2
2021/10/26 00:00:00;;;;;;;12.85;8.23;;;;;;;4.73;93.79;101917.16;4993945;28;20033;-68
2021/10/26 00:02:26;;;;;;;12.30;7.78;;;;;;;4.72;94.24;101913.69;4992339;28;20037;-66
2021/10/26 00:04:51;;;;;;;12.13;8.00;;;;;;;4.82;94.05;101908.59;4991562;28;20053;-67
2021/10/26 00:07:17;;;;;;;11.75;8.48;;;;;;;4.85;93.79;101864.47;4992640;28;20023;-69
2021/10/26 00:09:43;;;;;;;10.63;7.35;;;;;;;5.08;93.25;101901.28;4993659;28;20026;-67
2021/10/26 00:12:09;;;;;;;11.85;8.38;;;;;;;5.15;93.43;101893.34;4993039;28;20568;-67
2021/10/26 00:14:34;;;;;;;11.32;8.20;;;;;;;5.29;92.96;101884.22;4992697;28;20032;-69
2021/10/26 00:17:00;;;;;;;13.93;7.40;;;;;;;5.43;92.48;101896.50;4992533;28;20030;-65
2021/10/26 00:19:26;;;;;;;12.02;8.43;;;;;;;4.90;93.37;101896.44;4991872;28;20105;-67
2021/10/26 00:21:51;;;;;;;15.07;8.60;;;;;;;4.78;94.66;101903.97;4995904;28;20042;-67
2021/10/26 00:24:17;;;;;;;17.85;9.93;;;;;;;4.77;94.42;101870.59;4993366;28;20022;-66
2021/10/26 00:26:42;;;;;;;15.07;11.13;;;;;;;4.96;93.92;101881.59;4999261;28;20484;-66
2021/10/26 00:29:08;;;;;;;15.35;9.20;;;;;;;5.06;93.65;101883.25;5001813;28;20030;-66
2021/10/26 00:31:33;;;;;;;11.18;8.43;;;;;;;4.94;93.16;101837.06;5011566;28;20040;-67
2021/10/26 00:33:59;;;;;;;11.93;7.95;;;;;;;5.17;91.52;101887.56;5011282;28;20033;-67
2021/10/26 00:36:25;;;;;;;11.00;7.00;;;;;;;4.61;92.27;101794.25;5006112;28;20034;-66
2021/10/26 00:38:51;;;;;;;14.18;7.63;;;;;;;4.93;93.54;101880.44;5002415;28;20041;-67
2021/10/26 00:41:18;;;;;;;13.93;8.27;;;;;;;4.87;94.59;101875.69;5010026;28;20030;-66
2021/10/26 00:43:44;;;;;;;11.88;7.22;;;;;;;4.93;95.04;101883.00;5010658;28;20049;-65
2021/10/26 00:46:10;;;;;;;24.52;8.88;;;;;;;5.11;95.54;101869.16;5008178;28;20029;-64
2021/10/26 00:48:36;;;;;;;15.50;7.53;;;;;;;5.21;95.45;101863.13;5009242;28;20120;-67
2021/10/26 00:51:09;;;;;;;15.18;8.45;;;;;;;5.33;95.78;101876.91;5010244;28;20152;-67
2021/10/26 00:53:34;;;;;;;13.38;8.15;;;;;;;5.50;95.32;101865.44;5010731;28;20041;-67
2021/10/26 00:56:00;;;;;;;12.95;7.22;;;;;;;5.61;92.65;101865.44;5010565;28;20025;-67
2021/10/26 00:58:25;;;;;;;11.20;7.63;;;;;;;5.68;92.73;101865.13;5010588;28;20065;-67
2021/10/26 01:00:51;;;;;;;11.82;7.55;;;;;;;5.71;93.16;101864.47;5010032;28;20095;-66
2021/10/26 01:03:16;;;;;;;11.15;6.90;;;;;;;5.79;91.72;101860.84;5010166;28;20423;-65
2021/10/26 01:05:42;;;;;;;13.63;7.25;;;;;;;5.77;90.96;101847.94;5025464;28;20030;-68
2021/10/26 01:08:09;;;;;;;17.05;7.95;;;;;;;5.85;90.30;101856.22;5025631;28;20482;-69
2021/10/26 01:10:34;;;;;;;12.95;7.07;;;;;;;5.78;89.58;101853.94;5010074;28;20080;-67
2021/10/26 01:13:02;;;;;;;11.52;6.18;;;;;;;5.79;88.01;101848.91;5010666;28;20029;-66
2021/10/26 01:15:28;;;;;;;12.50;7.45;;;;;;;5.70;87.60;101837.06;4997380;28;20472;-66
2021/10/26 01:17:53;;;;;;;11.77;6.25;;;;;;;5.77;87.08;101839.31;5011067;28;20033;-66
2021/10/26 01:20:19;;;;;;;11.25;6.28;;;;;;;5.29;86.38;101764.75;5014614;28;20085;-69
2021/10/26 01:22:44;;;;;;;17.35;7.32;;;;;;;5.59;87.01;101831.09;5014749;28;20041;-67
2021/10/26 01:25:12;;;;;;;11.65;5.65;;;;;;;4.83;86.94;101738.06;5014930;28;20042;-66
2021/10/26 01:27:43;;;;;;;13.02;6.45;;;;;;;5.30;87.74;101834.81;5014632;28;20026;-66
2021/10/26 01:30:10;;;;;;;14.15;6.03;;;;;;;5.36;88.03;101832.72;5014598;28;20045;-66
2021/10/26 01:32:36;;;;;;;10.05;6.22;;;;;;;4.83;87.67;101741.50;5014833;28;20029;-67
2021/10/26 01:35:02;;;;;;;10.93;6.75;;;;;;;5.46;87.36;101829.25;5014976;28;20030;-67
2021/10/26 01:37:30;;;;;;;10.88;6.05;;;;;;;4.85;87.57;101734.84;5014513;28;20038;-66
2021/10/26 01:39:55;;;;;;;11.82;6.97;;;;;;;4.69;88.99;101800.91;5014626;28;20034;-66
2021/10/26 01:42:21;;;;;;;15.13;7.28;;;;;;;4.70;90.62;101821.47;5014758;28;20038;-63
2021/10/26 01:44:47;;;;;;;14.60;7.65;;;;;;;4.35;91.87;101821.13;5015142;28;20026;-66
2021/10/26 01:47:13;;;;;;;12.55;9.15;;;;;;;4.11;92.59;101795.28;5014412;28;20623;-65
2021/10/26 01:49:38;;;;;;;15.15;9.02;;;;;;;4.11;92.35;101815.75;5014499;28;20034;-63
2021/10/26 01:52:04;;;;;;;14.23;8.95;;;;;;;2.84;93.84;101650.84;5014287;28;20133;-64
2021/10/26 01:54:36;;;;;;;17.35;9.95;;;;;;;3.55;93.84;101744.59;5014175;28;20033;-63
2021/10/26 01:57:03;;;;;;;14.65;9.10;;;;;;;4.02;93.41;101820.94;5014352;28;20060;-66
2021/10/26 01:59:29;;;;;;;13.38;8.85;;;;;;;3.98;93.00;101816.34;5014381;28;20474;-66
2021/10/26 02:01:55;;;;;;;15.77;9.32;;;;;;;4.00;93.80;101812.25;5014011;28;20026;-67
2021/10/26 02:04:20;;;;;;;13.63;8.25;;;;;;;3.99;93.68;101807.03;5014186;28;20029;-66
2021/10/26 02:06:45;;;;;;;15.25;8.52;;;;;;;4.00;92.88;101814.81;5013914;28;20034;-65
2021/10/26 02:09:11;;;;;;;12.75;8.30;;;;;;;4.07;92.85;101813.66;5029345;28;20088;-65
2021/10/26 02:11:38;;;;;;;17.95;9.18;;;;;;;4.07;93.22;101808.56;5013774;28;20034;-65
2021/10/26 02:14:03;;;;;;;16.88;8.95;;;;;;;4.14;92.94;101808.31;5012681;28;20029;-65
2021/10/26 02:16:29;;;;;;;16.35;10.02;;;;;;;4.15;92.71;101811.75;5013819;28;20451;-65
2021/10/26 02:18:54;;;;;;;12.15;8.60;;;;;;;4.08;93.37;101805.25;5013916;28;20026;-65
2021/10/26 02:21:20;;;;;;;14.02;8.82;;;;;;;4.20;93.31;101808.84;5013832;28;20053;-63
2021/10/26 02:23:45;;;;;;;11.93;8.38;;;;;;;4.30;92.40;101807.03;5013533;28;20032;-64
2021/10/26 02:26:12;;;;;;;16.80;8.80;;;;;;;4.35;92.77;101800.66;5013844;28;20048;-66
2021/10/26 02:28:38;;;;;;;16.10;9.57;;;;;;;4.50;91.90;101811.28;5013920;28;20026;-66
2021/10/26 02:31:03;;;;;;;15.30;9.90;;;;;;;4.57;91.52;101785.41;5012834;28;20029;-64
2021/10/26 02:33:29;;;;;;;13.65;9.35;;;;;;;4.80;91.26;101797.53;5013426;28;20033;-65
2021/10/26 02:35:54;;;;;;;12.85;9.55;;;;;;;4.37;90.71;101713.09;5012096;28;20062;-64
2021/10/26 02:38:19;;;;;;;14.85;8.60;;;;;;;4.62;90.95;101801.16;5028759;28;20018;-66
2021/10/26 02:40:45;;;;;;;17.80;8.70;;;;;;;4.44;91.89;101803.97;5013452;28;20084;-64
2021/10/26 02:43:11;;;;;;;17.75;9.15;;;;;;;4.38;93.04;101796.69;5013516;28;20072;-64
2021/10/26 02:45:37;;;;;;;18.58;10.52;;;;;;;4.04;94.09;101727.41;5013719;28;20034;-66
2021/10/26 02:48:03;;;;;;;17.83;10.63;;;;;;;4.59;95.09;101809.47;5013419;28;20117;-66
2021/10/26 02:50:29;;;;;;;14.80;8.73;;;;;;;4.52;94.62;101789.25;5013426;28;20113;-65
2021/10/26 02:52:54;;;;;;;11.57;6.90;;;;;;;4.71;94.08;101801.94;5013112;28;20038;-66
2021/10/26 02:55:20;;;;;;;11.65;7.32;;;;;;;4.64;93.28;101785.16;4999914;28;20031;-67
2021/10/26 02:57:46;;;;;;;11.95;7.03;;;;;;;4.58;93.50;101791.44;4994716;28;20508;-66
2021/10/26 03:00:12;;;;;;;9.80;6.20;;;;;;;4.52;93.74;101787.63;4998215;28;20472;-66
2021/10/26 03:02:39;;;;;;;8.68;5.82;;;;;;;4.47;94.08;101770.97;4994200;28;20058;-67
2021/10/26 03:05:05;;;;;;;9.82;7.10;;;;;;;4.70;93.94;101792.47;4998861;28;20026;-68
2021/10/26 03:07:41;;;;;;;10.07;6.57;;;;;;;4.74;93.11;101796.16;5013180;28;20511;-64
2021/10/26 03:10:07;;;;;;;11.88;7.03;;;;;;;4.26;92.18;101693.44;5012693;28;20029;-65
2021/10/26 03:12:33;;;;;;;12.13;6.90;;;;;;;4.64;92.43;101790.28;5012884;28;20421;-64
2021/10/26 03:14:58;;;;;;;10.40;7.38;;;;;;;4.80;92.41;101791.56;5027126;28;20037;-70
2021/10/26 03:17:25;;;;;;;13.48;7.07;;;;;;;4.63;92.32;101791.03;5012757;28;20108;-65
2021/10/26 03:19:51;;;;;;;12.45;7.13;;;;;;;4.14;92.92;101733.31;5012749;28;20030;-65
2021/10/26 03:22:17;;;;;;;11.98;6.93;;;;;;;4.44;93.89;101780.09;5012823;28;20050;-64
2021/10/26 03:24:42;;;;;;;13.68;7.72;;;;;;;4.21;94.33;101784.16;5012929;28;20408;-70
2021/10/26 03:27:08;;;;;;;18.90;9.23;;;;;;;4.00;94.65;101779.03;5012414;28;20057;-67
2021/10/26 03:29:34;;;;;;;22.48;11.35;;;;;;;3.98;95.02;101777.13;5006553;28;20175;-64
2021/10/26 03:31:59;;;;;;;23.70;12.48;;;;;;;4.12;93.61;101786.84;5011953;28;20532;-66
2021/10/26 03:34:24;;;;;;;23.50;13.15;;;;;;;3.96;93.47;101771.91;5012170;28;20550;-69
2021/10/26 03:36:50;;;;;;;29.23;16.23;;;;;;;3.83;94.29;101771.63;5012339;28;20060;-66
2021/10/26 03:39:15;;;;;;;30.17;15.30;;;;;;;3.76;95.06;101777.84;5012254;28;20388;-68
2021/10/26 03:41:42;;;;;;;31.20;15.05;;;;;;;3.60;95.22;101767.06;5000239;28;20038;-63
2021/10/26 03:44:07;;;;;;;30.33;14.90;;;;;;;3.84;95.28;101787.06;5011060;28;20038;-67
2021/10/26 03:46:35;;;;;;;36.75;15.95;;;;;;;4.11;95.36;101773.94;5011933;28;20025;-64
2021/10/26 03:49:00;;;;;;;36.13;14.70;;;;;;;3.85;94.66;101758.19;5012426;28;20040;-65
2021/10/26 03:51:26;;;;;;;34.03;17.25;;;;;;;3.81;94.40;101780.78;5012043;28;20031;-63
2021/10/26 03:53:51;;;;;;;34.85;17.08;;;;;;;3.79;95.07;101777.19;5012062;28;20030;-63
2021/10/26 03:56:16;;;;;;;29.27;12.93;;;;;;;3.75;94.69;101757.28;5010885;28;20033;-67
2021/10/26 03:58:42;;;;;;;39.40;17.00;;;;;;;4.00;94.48;101781.59;5012204;28;20439;-66
2021/10/26 04:01:09;;;;;;;30.30;13.80;;;;;;;3.51;93.51;101703.34;5011933;28;20034;-67
2021/10/26 04:03:34;;;;;;;35.57;16.27;;;;;;;3.92;93.84;101782.59;5011891;28;20106;-66
2021/10/26 04:06:03;;;;;;;92.23;38.90;;;;;;;3.92;94.17;101781.72;5011810;28;20042;-63
2021/10/26 04:11:12;;;;;;;36.45;19.00;;;;;;;4.04;93.93;101782.75;5006969;28;20424;-66
2021/10/26 04:13:37;;;;;;;35.35;16.35;;;;;;;3.99;93.90;101766.16;5021019;28;20030;-64
2021/10/26 04:16:03;;;;;;;47.90;19.02;;;;;;;3.93;94.10;101773.28;5011494;28;20036;-63
2021/10/26 04:18:28;;;;;;;38.92;17.23;;;;;;;3.85;94.49;101770.06;5011646;28;20029;-64
2021/10/26 04:20:54;;;;;;;39.08;18.25;;;;;;;3.73;94.48;101770.81;5011513;28;20089;-63
2021/10/26 04:23:20;;;;;;;40.83;16.75;;;;;;;3.58;94.78;101749.09;5011834;28;20105;-66
2021/10/26 04:25:46;;;;;;;40.50;18.83;;;;;;;3.54;95.55;101763.25;5011209;28;20029;-65
2021/10/26 04:28:11;;;;;;;32.47;14.77;;;;;;;3.30;95.44;101733.03;5010351;28;20388;-66
2021/10/26 04:30:37;;;;;;;30.65;15.13;;;;;;;3.62;95.69;101768.13;5006249;28;20033;-64
2021/10/26 04:33:04;;;;;;;36.90;14.50;;;;;;;3.77;94.85;101771.97;5025653;28;20416;-66
2021/10/26 04:35:30;;;;;;;22.58;13.27;;;;;;;3.51;94.39;101749.31;5011367;28;20026;-64
2021/10/26 04:37:56;;;;;;;28.30;12.00;;;;;;;3.67;94.44;101770.28;5011302;28;20084;-66
2021/10/26 04:40:22;;;;;;;24.35;13.13;;;;;;;3.26;93.97;101672.28;5011172;28;20569;-67
2021/10/26 04:42:47;;;;;;;31.63;13.70;;;;;;;3.64;93.73;101752.16;5011215;28;20061;-66
2021/10/26 04:45:13;;;;;;;35.80;16.20;;;;;;;3.66;93.12;101772.72;5011156;28;20456;-67
2021/10/26 04:47:42;;;;;;;38.70;19.83;;;;;;;3.29;94.29;101775.53;5011251;28;20026;-64
2021/10/26 04:50:08;;;;;;;;;;;;;;;3.10;95.07;101773.00;5011768;28;20026;-66
2021/10/26 04:52:33;;;;;;;29.43;14.27;;;;;;;3.23;94.20;101765.69;5011224;28;20295;-63
2021/10/26 04:54:59;;;;;;;27.47;12.87;;;;;;;3.36;94.22;101767.63;5011051;28;20037;-67
2021/10/26 04:57:24;;;;;;;22.95;13.77;;;;;;;3.52;92.04;101757.09;5011146;28;20018;-67
2021/10/26 04:59:50;;;;;;;32.77;14.00;;;;;;;3.68;90.72;101771.19;5011298;28;20546;-63
2021/10/26 05:02:15;;;;;;;20.52;11.02;;;;;;;3.70;90.01;101759.44;5011081;28;20026;-67
2021/10/26 05:04:40;;;;;;;26.35;11.77;;;;;;;3.82;89.74;101760.47;5010887;28;20056;-67
2021/10/26 05:07:06;;;;;;;32.97;12.30;;;;;;;3.83;89.36;101756.28;5008082;28;20033;-67
2021/10/26 05:09:32;;;;;;;45.05;13.50;;;;;;;3.80;89.10;101750.91;5003934;28;20026;-64
2021/10/26 05:11:57;;;;;;;39.03;14.82;;;;;;;3.94;89.34;101775.06;5010729;28;20025;-65
2021/10/26 05:14:23;;;;;;;42.25;15.48;;;;;;;3.92;89.13;101772.38;5007311;28;20480;-65
2021/10/26 05:16:48;;;;;;;30.70;12.73;;;;;;;3.95;89.06;101777.75;5007818;28;20022;-65
2021/10/26 05:19:16;;;;;;;25.73;13.07;;;;;;;3.90;88.63;101758.59;5006300;28;20046;-65
2021/10/26 05:21:41;;;;;;;40.03;21.00;;;;;;;3.97;89.20;101781.31;5005757;28;20480;-64
2021/10/26 05:24:08;;;;;;;60.67;40.13;;;;;;;3.93;90.19;101780.97;5002314;28;20037;-65
2021/10/26 05:26:34;;;;;;;33.67;16.25;;;;;;;4.01;90.61;101783.41;5024507;28;20077;-66
2021/10/26 05:29:00;;;;;;;28.67;13.57;;;;;;;3.94;89.33;101763.19;5010542;28;20029;-65
2021/10/26 05:31:26;;;;;;;32.70;16.52;;;;;;;4.09;89.25;101783.13;5010276;28;20404;-66
2021/10/26 05:33:52;;;;;;;30.08;17.02;;;;;;;3.58;89.96;101707.31;5002037;28;20034;-66
2021/10/26 05:36:17;;;;;;;29.85;13.85;;;;;;;4.04;90.05;101773.41;5010446;28;20026;-64
2021/10/26 05:38:43;;;;;;;28.77;13.50;;;;;;;4.08;88.91;101769.47;5010652;28;20026;-63
2021/10/26 05:41:12;;;;;;;27.02;13.20;;;;;;;4.19;89.35;101790.81;5005048;28;20029;-65
2021/10/26 05:43:39;;;;;;;21.55;12.30;;;;;;;3.91;88.46;101785.91;5007597;28;20026;-65
2021/10/26 05:46:05;;;;;;;27.15;13.18;;;;;;;3.95;88.42;101785.44;5010049;28;20041;-64
2021/10/26 05:48:32;;;;;;;20.10;12.40;;;;;;;3.85;89.20;101782.84;5010176;28;20520;-65
2021/10/26 05:51:00;;;;;;;20.50;12.52;;;;;;;4.07;89.73;101805.13;5009978;28;20104;-65
2021/10/26 05:53:28;;;;;;;24.73;12.93;;;;;;;4.29;89.95;101803.59;5007999;28;20068;-66
2021/10/26 05:55:54;;;;;;;19.58;11.60;;;;;;;3.91;90.55;101706.72;5009191;28;20482;-63
2021/10/26 05:58:20;;;;;;;17.08;10.93;;;;;;;4.50;91.18;101788.25;5009663;28;20026;-69
2021/10/26 06:00:45;;;;;;;15.77;11.88;;;;;;;4.20;92.95;101727.03;5009970;28;20030;-67
2021/10/26 06:03:11;;;;;;;16.23;11.00;;;;;;;4.75;94.58;101782.56;5010031;28;20452;-65
2021/10/26 06:05:38;;;;;;;19.88;14.05;;;;;;;5.03;96.58;101808.75;5010733;28;20026;-66
2021/10/26 06:08:06;;;;;;;19.60;13.40;;;;;;;5.23;98.13;101802.66;5013363;28;20022;-65
2021/10/26 06:10:34;;;;;;;20.70;12.88;;;;;;;5.51;98.35;101816.00;5019407;28;20065;-63
2021/10/26 06:13:08;;;;;;;17.15;11.63;;;;;;;4.72;97.83;101649.31;5011154;28;20405;-69
2021/10/26 06:15:33;;;;;;;18.55;10.20;;;;;;;5.56;98.41;101794.97;5012278;28;20406;-66
2021/10/26 06:17:59;;;;;;;10.80;7.57;;;;;;;5.87;96.95;101820.44;5003067;28;20034;-66
2021/10/26 06:20:24;;;;;;;10.15;6.13;;;;;;;5.77;95.82;101814.59;4994302;28;20026;-67
2021/10/26 06:22:50;;;;;;;12.77;7.55;;;;;;;5.69;96.30;101831.03;4993608;28;20034;-67
2021/10/26 06:25:15;;;;;;;18.13;7.45;;;;;;;5.52;96.33;101806.69;4993901;28;20022;-66
2021/10/26 06:27:41;;;;;;;12.55;7.65;;;;;;;5.52;96.58;101783.63;4997440;28;20030;-64
2021/10/26 06:30:07;;;;;;;15.20;7.78;;;;;;;5.93;95.84;101819.25;4995410;28;20113;-68
2021/10/26 06:32:33;;;;;;;18.52;9.40;;;;;;;6.15;94.39;101810.69;4997947;28;20111;-67
2021/10/26 06:34:58;;;;;;;13.23;7.53;;;;;;;6.11;92.56;101777.91;4997934;28;20030;-66
2021/10/26 06:37:24;;;;;;;12.57;6.88;;;;;;;6.20;93.52;101817.03;4994610;28;20056;-65
2021/10/26 06:39:55;;;;;;;11.88;7.05;;;;;;;6.09;92.19;101747.03;4997859;28;20058;-67
2021/10/26 06:42:22;;;;;;;11.55;7.07;;;;;;;6.73;90.86;101814.19;4998447;28;20033;-68
2021/10/26 06:44:48;;;;;;;10.65;7.32;;;;;;;6.70;90.12;101789.97;4997592;28;20030;-65
2021/10/26 06:47:14;;;;;;;13.68;8.45;;;;;;;7.07;89.84;101826.03;4994812;28;20480;-69
2021/10/26 06:49:40;;;;;;;14.40;8.52;;;;;;;7.29;88.47;101813.09;4996353;28;20026;-66
2021/10/26 06:52:05;;;;;;;12.68;7.90;;;;;;;7.45;88.48;101805.69;4992800;28;20018;-66
2021/10/26 06:54:31;;;;;;;16.13;9.07;;;;;;;6.25;88.58;101648.16;4994761;28;20127;-66
2021/10/26 06:56:57;;;;;;;12.23;9.45;;;;;;;6.53;91.24;101773.31;5009453;28;20480;-65
2021/10/26 06:59:22;;;;;;;16.65;10.52;;;;;;;5.92;94.32;101708.91;5008485;28;20046;-65
2021/10/26 07:01:48;;;;;;;16.05;11.00;;;;;;;5.52;93.97;101578.72;4993779;28;20030;-66
2021/10/26 07:04:14;;;;;;;25.60;16.30;;;;;;;7.00;92.84;101788.72;4992614;28;20113;-66
2021/10/26 07:06:39;;;;;;;21.80;15.02;;;;;;;7.22;92.48;101791.19;4993482;28;20472;-67
2021/10/26 07:09:05;;;;;;;28.70;21.00;;;;;;;7.28;92.22;101785.59;4995128;28;20101;-65
2021/10/26 07:11:30;;;;;;;20.73;12.00;;;;;;;7.39;90.87;101789.81;4995366;28;20412;-65
2021/10/26 07:13:56;;;;;;;21.48;12.30;;;;;;;7.36;90.20;101771.59;4994004;28;20124;-65
2021/10/26 07:16:21;;;;;;;26.42;15.75;;;;;;;7.42;89.94;101759.19;4993343;28;20113;-65
2021/10/26 07:18:47;;;;;;;16.48;10.82;;;;;;;7.60;89.42;101780.16;4993739;28;20030;-63
2021/10/26 07:21:14;;;;;;;18.98;10.90;;;;;;;7.75;89.40;101784.56;5009160;28;20038;-64
2021/10/26 07:23:40;;;;;;;13.93;10.07;;;;;;;7.92;89.78;101783.19;5013339;28;20042;-65
2021/10/26 07:26:05;;;;;;;13.70;9.60;;;;;;;7.86;90.20;101757.03;5010786;28;20535;-66
2021/10/26 07:28:31;;;;;;;15.82;9.93;;;;;;;7.96;89.94;101771.44;5009890;28;20077;-69
2021/10/26 07:30:56;;;;;;;11.20;7.85;;;;;;;8.11;89.24;101775.03;5018474;28;20037;-65
2021/10/26 07:33:26;;;;;;;13.15;8.02;;;;;;;8.15;87.61;101784.75;5029642;28;20511;-65
2021/10/26 07:35:53;;;;;;;10.77;7.25;;;;;;;7.76;87.08;101691.25;5014042;28;20045;-65
2021/10/26 07:38:29;;;;;;;11.73;7.85;;;;;;;8.18;87.96;101772.09;5010402;28;20053;-63
2021/10/26 07:40:56;;;;;;;15.18;7.75;;;;;;;7.77;90.12;101758.19;5010675;28;20030;-63
2021/10/26 07:43:22;;;;;;;11.23;7.72;;;;;;;7.61;90.70;101693.66;5013322;28;20104;-65
2021/10/26 07:45:47;;;;;;;12.52;7.53;;;;;;;8.10;89.30;101763.88;5011858;28;20125;-66
2021/10/26 07:48:13;;;;;;;13.02;6.90;;;;;;;7.90;87.50;101747.09;5019964;28;20484;-66
2021/10/26 07:50:39;;;;;;;24.65;16.70;;;;;;;8.17;87.35;101756.56;5010720;28;20041;-65
2021/10/26 07:53:05;;;;;;;15.07;10.30;;;;;;;8.48;87.00;101756.97;4998512;28;20042;-65
2021/10/26 07:55:30;;;;;;;10.82;7.20;;;;;;;8.64;85.88;101745.13;5011448;28;20091;-65
2021/10/26 07:57:57;;;;;;;11.60;7.15;;;;;;;8.82;85.70;101747.97;5011966;28;20056;-66
2021/10/26 08:00:24;;;;;;;14.35;8.50;;;;;;;8.42;83.87;101666.44;5012059;28;20030;-65
2021/10/26 08:02:50;;;;;;;10.63;6.85;;;;;;;8.60;82.71;101746.59;5011970;28;20038;-67
2021/10/26 08:05:17;;;;;;;11.80;6.25;;;;;;;8.81;84.25;101741.03;5011667;28;20084;-66
2021/10/26 08:07:42;;;;;;;11.15;7.30;;;;;;;9.06;82.60;101743.53;5011718;28;20037;-67
2021/10/26 08:10:08;;;;;;;10.43;6.70;;;;;;;9.20;83.69;101750.41;5011416;28;20033;-65
2021/10/26 08:12:33;;;;;;;9.95;7.10;;;;;;;9.26;82.27;101770.53;5010299;28;20045;-66
2021/10/26 08:14:59;;;;;;;10.05;6.50;;;;;;;9.40;82.02;101763.69;5011560;28;20029;-67
2021/10/26 08:17:25;;;;;;;9.52;6.63;;;;;;;9.55;81.07;101751.72;5011042;28;20026;-67
2021/10/26 08:19:50;;;;;;;10.85;6.78;;;;;;;9.15;80.63;101666.78;4998611;28;20045;-66
2021/10/26 08:22:18;;;;;;;11.02;7.57;;;;;;;9.49;81.03;101725.56;4994995;28;20587;-65
2021/10/26 08:24:50;;;;;;;13.50;6.82;;;;;;;9.79;80.63;101735.97;5000996;28;20477;-65
2021/10/26 08:27:17;;;;;;;12.35;7.47;;;;;;;10.06;80.28;101738.44;5011014;28;20072;-66
2021/10/26 08:37:40;;;;;;;8.63;5.50;;;;;;;10.19;75.89;101738.38;4992894;28;20096;-67
2021/10/26 08:40:07;;;;;;;8.30;5.30;;;;;;;10.19;76.72;101727.13;4997423;28;20022;-66
2021/10/26 08:42:32;;;;;;;8.35;5.95;;;;;;;10.35;76.96;101719.50;4994157;28;20731;-67
2021/10/26 08:45:00;;;;;;;7.13;5.65;;;;;;;10.42;76.48;101719.88;4992765;28;20029;-68
2021/10/26 08:47:26;;;;;;;15.80;7.63;;;;;;;10.46;75.04;101714.97;4992249;28;20035;-67
2021/10/26 08:49:53;;;;;;;7.80;5.47;;;;;;;10.61;75.01;101707.22;4998049;28;20117;-67
2021/10/26 08:52:24;;;;;;;12.27;6.85;;;;;;;10.88;74.86;101721.59;4998276;28;20034;-66
2021/10/26 08:54:54;;;;;;;8.35;5.00;;;;;;;10.44;73.87;101648.56;5009733;28;20026;-67
2021/10/26 08:57:20;;;;;;;;;;;;;;;10.63;72.68;101704.72;5011645;28;20480;-67
2021/10/26 08:59:46;;;;;;;6.38;3.55;;;;;;;10.25;70.47;101631.13;5011102;28;19905;-66
2021/10/26 09:02:12;;;;;;;10.23;4.07;;;;;;;10.68;72.83;101703.31;5011223;28;20110;-66
2021/10/26 09:04:38;;;;;;;12.13;7.88;;;;;;;10.69;71.20;101702.47;5008958;28;20042;-67
2021/10/26 09:07:25;;;;;;;10.40;5.85;;;;;;;10.56;72.28;101697.44;5011279;28;20488;-66
2021/10/26 09:09:50;;;;;;;6.47;4.15;;;;;;;10.91;70.77;101696.81;5010587;28;20061;-69
2021/10/26 09:17:45;;;;;;;7.18;3.80;;;;;;;10.83;68.18;101680.91;5011668;28;20125;-66
2021/10/26 09:20:15;;;;;;;4.93;3.33;;;;;;;10.60;70.46;101683.91;5010765;28;20100;-66
2021/10/26 09:22:46;;;;;;;;;;;;;;;10.79;70.68;101675.47;5011816;28;20030;-66
2021/10/26 09:25:13;;;;;;;7.25;3.78;;;;;;;11.09;71.02;101665.03;5042500;28;20016;-65
2021/10/26 09:27:39;;;;;;;5.72;3.20;;;;;;;11.16;69.54;101664.56;5011353;28;20460;-67
2021/10/26 09:30:09;;;;;;;5.32;2.97;;;;;;;10.66;69.11;101574.06;5011536;28;20030;-66
2021/10/26 09:32:37;;;;;;;4.95;3.45;;;;;;;11.23;69.64;101658.94;5011231;28;20080;-66
2021/10/26 09:35:11;;;;;;;7.15;3.78;;;;;;;11.50;71.91;101663.75;5011260;28;20029;-66
2021/10/26 09:37:38;;;;;;;8.05;3.60;;;;;;;11.74;69.55;101653.81;5011269;28;20061;-66
2021/10/26 09:40:06;;;;;;;5.00;3.15;;;;;;;11.65;69.15;101575.72;5013088;28;20034;-67
2021/10/26 09:43:05;;;;;;;5.80;2.95;;;;;;;12.27;66.34;101664.22;5014778;28;20033;-66
2021/10/26 09:45:32;;;;;;;4.57;2.85;;;;;;;12.32;67.23;101662.75;4973588;28;20050;-66
2021/10/26 09:48:10;;;;;;;4.70;2.60;;;;;;;12.44;65.71;101660.75;4973517;28;20130;-66
2021/10/26 09:50:36;;;;;;;4.07;2.70;;;;;;;12.42;66.79;101646.88;4973631;28;20051;-67
2021/10/26 09:53:06;;;;;;;5.75;2.80;;;;;;;12.48;65.57;101635.00;4973250;28;20064;-67
2021/10/26 09:55:43;;;;;;;5.32;2.85;;;;;;;12.61;65.16;101645.13;4973201;28;20070;-66
2021/10/26 09:58:30;;;;;;;5.13;3.22;;;;;;;12.21;65.46;101563.84;4954149;29;20494;-67
2021/10/26 10:01:09;;;;;;;6.45;3.40;;;;;;;12.69;64.80;101636.03;4954157;29;20066;-66
2021/10/26 10:03:35;;;;;;;5.07;2.92;;;;;;;12.72;64.37;101632.69;4953641;29;20114;-66
2021/10/26 10:06:06;;;;;;;5.07;2.83;;;;;;;12.69;65.11;101636.03;4953875;29;20516;-67
2021/10/26 10:08:36;;;;;;;8.93;3.70;;;;;;;12.28;64.64;101547.78;4937374;29;20042;-67
2021/10/26 10:11:05;;;;;;;8.05;4.50;;;;;;;12.61;67.71;101614.94;4953531;29;20126;-64
2021/10/26 10:13:31;;;;;;;7.43;4.07;;;;;;;12.59;65.45;101607.91;4953375;29;20043;-67
2021/10/26 10:15:57;;;;;;;7.10;4.43;;;;;;;12.61;65.22;101606.25;4953712;29;20039;-67
2021/10/26 10:18:24;;;;;;;7.72;5.05;;;;;;;12.63;65.91;101615.00;4953335;29;20047;-66
2021/10/26 10:20:53;;;;;;;6.97;4.10;;;;;;;12.70;66.48;101593.75;4976695;28;20133;-65
2021/10/26 10:23:22;;;;;;;6.20;4.22;;;;;;;12.98;64.79;101586.34;5026357;28;20068;-67
2021/10/26 10:25:49;;;;;;;8.35;2.92;;;;;;;12.94;64.08;101574.97;5031287;28;20037;-66
2021/10/26 10:28:18;;;;;;;7.60;2.80;;;;;;;12.44;62.07;101484.63;5031598;28;20188;-67
2021/10/26 10:30:44;;;;;;;7.27;2.70;;;;;;;13.07;62.77;101577.28;5013842;28;20105;-64
2021/10/26 10:33:30;;;;;;;8.25;2.85;;;;;;;13.02;62.57;101564.94;5031286;28;20272;-64
2021/10/26 10:35:58;;;;;;;6.13;3.00;;;;;;;13.23;62.25;101575.38;5031350;28;20084;-66
2021/10/26 10:38:33;;;;;;;5.43;2.90;;;;;;;13.14;62.59;101565.47;5031282;28;20041;-66
2021/10/26 10:41:25;;;;;;;8.50;5.25;;;;;;;13.27;65.59;101559.09;5031164;28;20037;-66
2021/10/26 10:43:52;;;;;;;10.05;7.60;;;;;;;13.58;61.00;101547.47;5014633;28;20041;-67
2021/10/26 10:46:42;;;;;;;10.15;6.75;;;;;;;13.65;60.77;101553.84;5031359;28;20064;-66
2021/10/26 10:49:20;;;;;;;5.80;3.80;;;;;;;13.63;61.09;101547.69;5014550;28;20029;-67
2021/10/26 10:51:59;;;;;;;6.28;3.45;;;;;;;13.73;63.82;101542.94;5017598;28;20095;-66
2021/10/26 10:54:43;;;;;;;;;;;;;;;13.59;62.22;101542.38;5031411;28;20049;-66
2021/10/26 10:57:22;;;;;;;5.30;2.95;;;;;;;13.00;63.38;101475.88;5030818;28;19987;-67
2021/10/26 10:59:52;;;;;;;5.30;3.10;;;;;;;13.56;63.70;101544.84;5026312;28;20125;-67
2021/10/26 11:02:21;;;;;;;;;;;;;;;13.87;64.70;101529.66;5014397;28;20026;-67
2021/10/26 11:04:47;;;;;;;6.03;3.40;;;;;;;13.99;62.98;101516.25;5000620;28;20303;-66
2021/10/26 11:07:13;;;;;;;7.80;3.70;;;;;;;14.10;63.37;101527.97;5010624;28;20049;-67
2021/10/26 11:09:43;;;;;;;8.32;4.20;;;;;;;14.11;61.85;101500.31;4995104;28;20022;-67
2021/10/26 11:12:17;;;;;;;7.55;3.67;;;;;;;13.98;61.22;101509.31;5002089;28;20042;-68
2021/10/26 11:14:53;;;;;;;7.53;4.13;;;;;;;14.13;62.51;101509.91;4992998;28;20026;-68
2021/10/26 11:20:07;;;;;;;5.47;3.17;;;;;;;14.54;62.33;101508.00;4995272;28;20042;-66
2021/10/26 11:22:52;;;;;;;5.10;3.10;;;;;;;14.69;61.69;101505.13;4995055;28;20061;-70
2021/10/26 11:25:27;;;;;;;4.25;2.65;;;;;;;14.97;59.49;101503.53;4992911;28;20030;-67
2021/10/26 11:27:53;;;;;;;6.35;3.10;;;;;;;14.92;59.41;101473.88;4992899;28;20038;-65
2021/10/26 11:30:28;;;;;;;9.27;3.80;;;;;;;14.97;59.46;101497.44;4992350;28;20057;-65
2021/10/26 11:33:12;;;;;;;17.25;3.53;;;;;;;14.88;61.35;101493.66;4999439;28;20148;-68
2021/10/26 11:35:47;;;;;;;4.43;2.60;;;;;;;14.81;61.65;101488.22;4993253;28;20022;-66
2021/10/26 11:38:15;;;;;;;6.22;2.75;;;;;;;14.56;62.67;101480.34;4993994;28;20034;-67
2021/10/26 11:41:02;;;;;;;10.70;2.83;;;;;;;14.14;63.26;101485.69;4991465;28;20034;-67
2021/10/26 11:43:39;;;;;;;4.80;2.78;;;;;;;14.21;63.75;101472.13;4994122;28;20030;-67